Latest Weather Observations for Warracknabeal Airport

IDV60801

Issued at 9:22 pm EST Thursday 30 June 2022 (issued every 10 minutes, with the page automatically refreshed every 10 minutes)

About weather observations | Map of weather stations | Latest weather observations for VIC | Other Formats
Station Details ID: 078018 Name: WARRACKNABEAL AIRPORT Lat: -36.32 Lon: 142.42 Height: 118.3 m
Data from the previous 72 hours. | See also: Recent months at Warracknabeal Airport
Date/Time
EST
Temp
°C
App
Temp
°C
Dew
Point
°C
Rel
Hum
%
Delta-T
°C
Wind Press
QNH
hPa
Press
MSL
hPa
Rain since
9am
mm
Dir  Spd
km/h
Gust
km/h
Spd
kts
Gust
kts
30/09:00pm 7.5 4.5 7.5 100 0.0 SSE 13 17 7 9 1027.5 1027.7 0.0
30/08:30pm 7.2 4.1 7.2 100 0.0 SSE 13 15 7 8 1027.2 1027.4 -
30/08:00pm 7.5 4.8 7.5 100 0.0 SSE 11 15 6 8 1027.0 1027.2 -
30/07:30pm 7.5 4.8 7.5 100 0.0 SSE 11 13 6 7 1026.8 1027.0 -
30/07:00pm 7.9 5.7 7.9 100 0.0 SSE 9 11 5 6 1026.4 1026.6 -
30/06:30pm 9.2 7.3 9.1 99 0.0 SSE 9 11 5 6 1026.0 1026.2 -
30/06:00pm 9.8 7.7 9.7 99 0.1 SSE 11 13 6 7 1025.5 1025.8 -
30/05:30pm 9.7 7.0 8.9 95 0.4 SSE 13 15 7 8 1025.1 1025.4 -
30/05:00pm 12.1 8.9 7.0 71 2.4 S 13 17 7 9 1025.0 1025.3 -
30/04:30pm 12.6 9.0 6.9 68 2.8 S 15 19 8 10 1024.5 1024.8 -
30/04:00pm 12.4 8.2 7.3 71 2.5 S 19 22 10 12 1024.4 1024.7 -
30/03:30pm 12.9 9.9 5.8 62 3.4 S 11 13 6 7 1024.2 1024.5 -
30/03:00pm 12.7 9.4 6.3 65 3.0 SSE 13 15 7 8 1024.0 1024.3 0.2
30/02:30pm 12.6 9.6 7.5 71 2.5 SSE 13 17 7 9 1023.9 1024.2 -
30/02:00pm 12.3 9.3 7.6 73 2.3 SSE 13 19 7 10 1024.1 1024.4 -
30/01:30pm 11.9 9.7 8.0 77 1.9 SE 9 17 5 9 1024.3 1024.6 -
30/01:00pm 11.4 8.9 8.4 82 1.5 SE 11 19 6 10 1024.3 1024.6 -
30/12:30pm 10.9 7.9 9.2 89 0.9 E 15 19 8 10 1024.6 1024.9 -
30/12:00pm 10.2 7.5 9.1 93 0.5 SE 13 15 7 8 1024.7 1025.0 -
30/11:30am 9.6 6.3 9.5 99 0.1 ESE 17 20 9 11 1024.8 1025.1 -
30/11:00am 9.2 5.8 9.2 100 0.0 ESE 17 20 9 11 1024.9 1025.2 -
30/10:30am 7.9 4.9 7.9 100 0.0 SE 13 19 7 10 1024.8 1025.1 -
30/10:00am 7.5 4.1 7.5 100 0.0 SE 15 20 8 11 1024.6 1024.9 0.2
30/09:30am 6.6 3.0 6.6 100 0.0 SE 15 19 8 10 1024.3 1024.6 0.2
30/09:00am 6.4 3.5 6.4 100 0.0 SE 11 17 6 9 1024.0 1024.3 10.2
30/08:30am 6.1 1.6 6.1 100 0.0 ESE 19 24 10 13 1023.9 1024.2 9.8
30/08:00am 5.9 1.2 5.9 100 0.0 ESE 20 26 11 14 1023.5 1023.7 9.2
30/07:30am 5.8 2.4 5.8 100 0.0 ESE 13 19 7 10 1023.2 1023.4 8.4
30/07:00am 5.8 2.0 5.8 100 0.0 ENE 15 20 8 11 1022.6 1022.8 7.8
30/06:30am 5.7 1.5 5.7 100 0.0 ESE 17 20 9 11 1022.1 1022.3 6.4
30/06:00am 5.9 1.7 5.9 100 0.0 SE 17 20 9 11 1021.5 1021.7 5.6
30/05:30am 5.8 1.6 5.8 100 0.0 SE 17 20 9 11 1021.2 1021.4 3.8
30/05:00am 5.7 4.3 5.7 100 0.0 NNE 2 6 1 3 1021.3 1021.5 1.2
30/04:30am 5.8 3.5 5.8 100 0.0 NNE 7 7 4 4 1021.1 1021.3 0.0
30/04:00am 5.9 3.3 5.9 100 0.0 NNE 9 13 5 7 1020.7 1020.9 0.0
30/03:30am 5.8 3.5 5.8 100 0.0 NNE 7 9 4 5 1020.6 1020.8 0.0
30/03:00am 5.8 3.1 5.8 100 0.0 NNE 9 11 5 6 1020.6 1020.8 0.0
30/02:30am 5.9 3.3 5.9 100 0.0 NNE 9 9 5 5 1020.7 1020.9 0.0
30/02:00am 5.9 3.6 5.9 100 0.0 NNE 7 9 4 5 1020.7 1020.9 0.0
30/01:30am 5.8 2.8 5.8 100 0.0 NNE 11 13 6 7 1020.5 1020.7 0.0
30/01:00am 5.7 3.4 5.7 100 0.0 NNE 7 9 4 5 1020.6 1020.8 0.0
30/12:30am 5.3 2.9 5.3 100 0.0 NNE 7 9 4 5 1020.4 1020.6 0.0
30/12:00am 5.5 2.8 5.5 100 0.0 NNE 9 13 5 7 1020.1 1020.3 0.0
 
Date/Time
EST
Temp
°C
App
Temp
°C
Dew
Point
°C
Rel
Hum
%
Delta-T
°C
Wind Press
QNH
hPa
Press
MSL
hPa
Rain since
9am
mm
Dir  Spd
km/h
Gust
km/h
Spd
kts
Gust
kts
29/11:30pm 6.5 3.2 6.5 100 0.0 NNE 13 15 7 8 1020.5 1020.7 0.0
29/11:00pm 6.9 4.5 6.9 100 0.0 NNE 9 11 5 6 1020.8 1021.0 0.0
29/10:30pm 7.4 5.5 7.4 100 0.0 NNE 7 9 4 5 1020.9 1021.1 0.0
29/10:00pm 7.6 4.6 7.6 100 0.0 NNE 13 15 7 8 1020.9 1021.1 0.0
29/09:30pm 7.4 4.7 7.4 100 0.0 NNE 11 13 6 7 1020.9 1021.1 0.0
29/09:00pm 7.5 5.2 7.5 100 0.0 NNE 9 11 5 6 1021.0 1021.2 0.0
29/08:30pm 6.9 4.1 6.9 100 0.0 NNE 11 13 6 7 1020.7 1020.9 0.0
29/08:00pm 6.2 3.2 6.2 100 0.0 NNE 11 13 6 7 1020.6 1020.8 0.0
29/07:30pm 6.9 4.5 6.9 100 0.0 NNE 9 11 5 6 1020.6 1020.8 0.0
29/07:00pm 7.6 3.8 7.6 100 0.0 NNE 17 19 9 10 1020.2 1020.4 0.0
29/06:30pm 8.1 4.4 8.1 100 0.0 NNE 17 20 9 11 1020.0 1020.2 0.0
29/06:00pm 7.4 3.9 7.4 100 0.0 NNE 15 15 8 8 1020.2 1020.4 0.0
29/05:30pm 8.9 5.6 8.0 94 0.4 NNE 15 17 8 9 1019.8 1020.0 0.0
29/05:00pm 10.2 7.1 7.4 83 1.3 NNE 13 15 7 8 1019.7 1019.9 0.0
29/04:30pm 10.9 7.7 7.0 77 1.9 NNE 13 17 7 9 1019.7 1019.9 0.0
29/04:00pm 11.3 7.0 7.0 75 2.1 NNE 19 24 10 13 1019.7 1019.9 0.0
29/03:30pm 11.7 7.4 6.8 72 2.3 N 19 24 10 13 1020.1 1020.3 0.0
29/03:00pm 12.2 7.6 6.5 68 2.7 N 20 24 11 13 1019.9 1020.1 0.0
29/02:30pm 12.4 8.1 6.9 69 2.7 NNW 19 24 10 13 1020.3 1020.5 0.0
29/02:00pm 11.8 7.2 6.5 70 2.5 N 20 26 11 14 1020.9 1021.1 0.0
29/01:30pm 11.9 6.8 5.8 66 2.9 N 22 26 12 14 1021.1 1021.3 0.0
29/01:00pm 11.5 6.8 6.2 70 2.5 NNW 20 28 11 15 1021.6 1021.8 0.0
29/12:30pm 11.1 6.9 7.4 78 1.8 N 19 26 10 14 1022.5 1022.7 0.0
29/12:00pm 10.5 6.6 8.6 88 0.9 NNW 19 24 10 13 1023.0 1023.2 0.0
29/11:30am 9.9 5.7 8.2 89 0.8 N 20 26 11 14 1023.2 1023.4 0.0
29/11:00am 8.9 5.4 8.8 99 0.0 N 17 20 9 11 1023.8 1024.1 0.0
29/10:30am 6.8 3.2 6.8 100 0.0 NNE 15 19 8 10 1023.8 1024.1 0.0
29/10:00am 5.9 2.1 5.9 100 0.0 NNE 15 20 8 11 1023.8 1024.1 0.0
29/09:30am 4.7 1.0 4.7 100 0.0 NE 13 17 7 9 1023.8 1024.1 0.0
29/09:00am 3.6 -0.3 3.6 100 0.0 NE 13 15 7 8 1023.9 1024.2 0.2
29/08:30am 3.2 -1.1 3.2 100 0.0 NE 15 19 8 10 1024.0 1024.3 0.2
29/08:00am 2.1 -2.0 2.1 100 0.0 NNE 13 15 7 8 1024.4 1024.7 0.2
29/07:30am 1.9 -1.5 1.9 100 0.0 NNE 9 11 5 6 1024.4 1024.7 0.2
29/07:00am 2.1 -0.9 2.1 100 0.0 NNE 7 9 4 5 1024.5 1024.8 0.2
29/06:30am 2.3 -1.0 2.3 100 0.0 NNE 9 11 5 6 1024.2 1024.5 0.2
29/06:00am 2.0 -1.8 2.0 100 0.0 NNE 11 13 6 7 1024.0 1024.3 0.2
29/05:30am 1.1 -2.4 1.1 100 0.0 NNE 9 11 5 6 1024.1 1024.4 0.2
29/05:00am 1.1 -2.0 1.1 100 0.0 NNE 7 7 4 4 1024.1 1024.4 0.2
29/04:30am 1.1 -0.7 1.1 100 0.0 CALM 0 0 0 0 1024.2 1024.5 0.2
29/04:00am 2.3 -0.5 2.3 100 0.0 NNE 6 9 3 5 1024.2 1024.5 0.2
29/03:30am 2.0 -2.5 2.0 100 0.0 NNE 15 17 8 9 1024.0 1024.3 0.2
29/03:00am 2.7 -0.9 2.7 100 0.0 NNE 11 13 6 7 1024.3 1024.6 0.2
29/02:30am 3.3 -1.4 3.3 100 0.0 NNE 17 20 9 11 1024.8 1025.1 0.2
29/02:00am 3.4 -1.3 3.4 100 0.0 NNE 17 19 9 10 1024.9 1025.2 0.2
29/01:30am 2.8 -1.2 2.8 100 0.0 NNE 13 13 7 7 1025.0 1025.3 0.2
29/01:00am 1.4 -2.5 1.4 100 0.0 NNE 11 13 6 7 1026.0 1026.2 0.2
29/12:30am 2.9 1.4 2.9 100 0.0 CALM 0 0 0 0 1026.4 1026.6 0.2
29/12:00am 2.2 -1.1 2.2 100 0.0 NNE 9 13 5 7 1026.4 1026.6 0.2
 
Date/Time
EST
Temp
°C
App
Temp
°C
Dew
Point
°C
Rel
Hum
%
Delta-T
°C
Wind Press
QNH
hPa
Press
MSL
hPa
Rain since
9am
mm
Dir  Spd
km/h
Gust
km/h
Spd
kts
Gust
kts
28/11:30pm 2.9 -0.3 2.9 100 0.0 NNE 9 11 5 6 1026.4 1026.6 0.2
28/11:00pm 2.9 -0.7 2.9 100 0.0 NNE 11 13 6 7 1026.6 1026.8 0.0
28/10:30pm 3.1 -0.5 3.1 100 0.0 NNE 11 13 6 7 1026.7 1026.9 0.0
28/10:00pm 3.8 0.4 3.8 100 0.0 NNE 11 13 6 7 1027.1 1027.3 0.0
28/09:30pm 4.7 1.4 4.7 100 0.0 NNE 11 13 6 7 1027.5 1027.7 0.0
28/09:00pm 5.7 2.6 5.7 100 0.0 NNE 11 13 6 7 1027.3 1027.5 0.0
28/08:30pm 5.6 1.8 5.6 100 0.0 NNE 15 17 8 9 1027.5 1027.7 0.0
28/08:00pm 5.2 1.6 5.2 100 0.0 NNE 13 15 7 8 1027.5 1027.7 0.0
28/07:30pm 5.4 1.5 5.4 100 0.0 NNE 15 17 8 9 1027.3 1027.5 0.0
28/07:00pm 5.1 1.5 5.1 100 0.0 NNE 13 15 7 8 1027.3 1027.5 0.0
28/06:30pm 6.2 3.2 6.2 100 0.0 NNE 11 11 6 6 1027.2 1027.4 0.0
28/06:00pm 6.7 3.4 6.6 99 0.0 NNE 13 15 7 8 1027.2 1027.4 0.0
28/05:30pm 8.1 5.1 7.5 96 0.3 NNE 13 15 7 8 1027.1 1027.3 0.0
28/05:00pm 10.7 7.0 6.3 74 2.1 NNE 15 19 8 10 1027.1 1027.3 0.0
28/04:30pm 11.7 7.0 6.0 68 2.7 NNE 20 26 11 14 1027.1 1027.3 0.0
28/04:00pm 12.4 7.9 6.2 66 2.9 N 19 24 10 13 1027.5 1027.7 0.0
28/03:30pm 12.5 7.9 5.7 63 3.2 N 19 26 10 14 1027.7 1027.9 0.0
28/03:00pm 12.5 7.0 6.1 65 3.0 NNE 24 30 13 16 1027.8 1028.0 0.0
28/02:30pm 12.6 7.5 6.0 64 3.1 NNE 22 28 12 15 1028.1 1028.3 0.0
28/02:00pm 12.3 7.5 5.5 63 3.2 N 20 30 11 16 1028.6 1028.8 0.0
28/01:30pm 12.5 7.4 5.9 64 3.1 N 22 32 12 17 1029.2 1029.4 0.0
28/01:00pm 12.0 7.3 6.1 67 2.8 N 20 26 11 14 1029.7 1029.9 0.0
28/12:30pm 11.6 7.0 6.7 72 2.3 N 20 28 11 15 1030.2 1030.4 0.0
28/12:00pm 11.3 6.9 7.6 78 1.8 N 20 28 11 15 1030.6 1030.8 0.0
28/11:30am 10.4 6.1 7.1 80 1.6 NNE 19 24 10 13 1030.8 1031.1 0.0
28/11:00am 9.9 6.4 8.8 93 0.5 NNE 17 20 9 11 1031.3 1031.6 0.0
28/10:30am 8.4 5.2 8.3 99 0.0 NE 15 19 8 10 1031.3 1031.6 0.0
28/10:00am 6.9 4.1 6.9 100 0.0 SW 11 13 6 7 1031.7 1032.0 0.0
28/09:30am 5.7 3.4 5.7 100 0.0 SW 7 11 4 6 1031.7 1032.0 0.0
28/09:00am 3.0 1.5 3.0 100 0.0 CALM 0 6 0 3 1031.8 1032.1 0.0
28/08:30am 1.3 -2.2 1.3 100 0.0 SW 9 9 5 5 1031.6 1031.9 0.0
28/08:00am 0.5 -2.5 0.5 100 0.0 SW 6 7 3 4 1031.7 1032.0 0.0
28/07:30am 0.0 -3.1 0.0 100 0.0 SW 6 7 3 4 1031.7 1032.0 0.0
28/07:00am 1.0 -0.8 1.0 100 0.0 CALM 0 0 0 0 1031.5 1031.8 0.0
28/06:30am 0.4 -2.3 0.4 100 0.0 SW 4 7 2 4 1031.1 1031.4 0.0
28/06:00am 0.6 -2.6 0.6 100 0.0 SW 7 7 4 4 1031.1 1031.4 0.0
28/05:30am 1.1 -2.4 1.1 100 0.0 SW 9 9 5 5 1031.2 1031.5 0.0
28/05:00am 1.0 -2.0 1.0 100 0.0 SW 6 9 3 5 1031.3 1031.6 0.0
28/04:30am 0.9 -0.9 0.9 100 0.0 CALM 0 0 0 0 1031.6 1031.9 0.0
28/04:00am 1.3 -0.5 1.3 100 0.0 CALM 0 0 0 0 1031.9 1032.2 0.0
28/03:30am 1.5 -0.3 1.5 100 0.0 CALM 0 0 0 0 1032.1 1032.4 0.0
28/03:00am 1.3 -0.5 1.3 100 0.0 CALM 0 0 0 0 1032.3 1032.6 0.0
28/02:30am 1.5 -0.3 1.5 100 0.0 CALM 0 0 0 0 1032.4 1032.7 0.0
28/02:00am 1.8 0.1 1.8 100 0.0 CALM 0 0 0 0 1032.2 1032.5 0.0
28/01:30am 1.9 0.2 1.9 100 0.0 CALM 0 0 0 0 1032.3 1032.6 0.0
28/01:00am 2.4 0.8 2.4 100 0.0 CALM 0 0 0 0 1032.3 1032.6 0.0
28/12:30am 2.2 0.6 2.2 100 0.0 CALM 0 0 0 0 1032.4 1032.7 0.0
28/12:00am 2.5 0.9 2.5 100 0.0 CALM 0 0 0 0 1032.8 1033.1 0.0
 
Date/Time
EST
Temp
°C
App
Temp
°C
Dew
Point
°C
Rel
Hum
%
Delta-T
°C
Wind Press
QNH
hPa
Press
MSL
hPa
Rain since
9am
mm
Dir  Spd
km/h
Gust
km/h
Spd
kts
Gust
kts
27/11:30pm 2.2 -0.2 2.2 100 0.0 SW 4 6 2 3 1033.2 1033.5 0.0
27/11:00pm 2.4 -0.3 2.4 100 0.0 SW 6 6 3 3 1033.3 1033.6 0.0
27/10:30pm 2.7 0.0 2.7 100 0.0 SW 6 9 3 5 1033.3 1033.6 0.0
27/10:00pm 3.5 1.0 3.5 100 0.0 SW 6 7 3 4 1033.5 1033.8 0.0
27/09:30pm 3.7 0.6 3.7 100 0.0 SW 9 9 5 5 1033.6 1033.9 0.0

Other formats

Comma delimited format used in spreadsheet applications
http://www.bom.gov.au/fwo/IDV60801/IDV60801.94920.axf

JavaScript Object Notation format (JSON) in row-major order
http://www.bom.gov.au/fwo/IDV60801/IDV60801.94920.json

Data quality

Most of these data are generated automatically and are frequently updated. Quality checks on data are not normally performed. It is possible for incorrect values to appear. Refer to information at About Latest Weather Observations and please check the disclaimer before using these data.